createdAt,value
2023-05-10T00:00:44.601Z,87962.00
2023-05-10T00:01:44.637Z,87958.00
2023-05-10T00:02:44.665Z,87958.00
2023-05-10T00:03:44.793Z,87958.00
2023-05-10T00:04:44.630Z,87956.00
2023-05-10T00:05:44.646Z,87956.00
2023-05-10T00:06:44.649Z,87956.00
2023-05-10T00:07:44.677Z,87956.00
2023-05-10T00:08:44.682Z,87956.00
2023-05-10T00:09:44.760Z,87954.00
2023-05-10T00:10:44.834Z,87954.00
2023-05-10T00:11:44.917Z,87954.00
2023-05-10T00:12:45.026Z,87954.00
2023-05-10T00:13:45.086Z,87952.00
2023-05-10T00:14:45.135Z,87952.00
2023-05-10T00:15:45.238Z,87952.00
2023-05-10T00:16:45.358Z,87950.00
2023-05-10T00:17:45.374Z,87952.00
2023-05-10T00:18:45.443Z,87950.00
2023-05-10T00:19:45.573Z,87948.00
2023-05-10T00:20:45.568Z,87948.00
2023-05-10T00:21:45.679Z,87948.00
2023-05-10T00:22:45.729Z,87948.00
2023-05-10T00:23:45.809Z,87948.00
2023-05-10T00:24:45.887Z,87948.00
2023-05-10T00:25:45.963Z,87946.00
2023-05-10T00:26:46.038Z,87950.00
2023-05-10T00:27:46.112Z,87948.00
2023-05-10T00:28:46.215Z,87946.00
2023-05-10T00:29:46.291Z,87948.00
2023-05-10T00:30:46.343Z,87946.00
2023-05-10T00:31:46.441Z,87942.00
2023-05-10T00:32:46.549Z,87942.00
2023-05-10T00:33:46.566Z,87940.00
2023-05-10T00:34:46.648Z,87944.00
2023-05-10T00:35:46.723Z,87938.00
2023-05-10T00:36:46.797Z,87938.00
2023-05-10T00:37:46.867Z,87942.00
2023-05-10T00:38:46.976Z,87940.00
2023-05-10T00:39:47.031Z,87938.00
2023-05-10T00:40:47.106Z,87938.00
2023-05-10T00:41:47.195Z,87940.00
2023-05-10T00:42:47.267Z,87938.00
2023-05-10T00:43:47.333Z,87938.00
2023-05-10T00:44:47.415Z,87940.00
2023-05-10T00:45:47.513Z,87940.00
2023-05-10T00:46:47.561Z,87936.00
2023-05-10T00:47:47.722Z,87936.00
2023-05-10T00:48:47.732Z,87934.00
2023-05-10T00:49:47.822Z,87934.00
2023-05-10T00:50:47.899Z,87936.00
2023-05-10T00:51:47.939Z,87936.00
2023-05-10T00:52:48.017Z,87936.00
2023-05-10T00:53:48.115Z,87934.00
2023-05-10T00:54:48.179Z,87934.00
2023-05-10T00:55:48.247Z,87934.00
2023-05-10T00:56:48.333Z,87934.00
2023-05-10T00:57:48.414Z,87934.00
2023-05-10T00:58:48.497Z,87932.00
2023-05-10T00:59:48.563Z,87930.00
2023-05-10T01:00:48.644Z,87932.00
2023-05-10T01:01:48.779Z,87932.00
2023-05-10T01:02:48.898Z,87934.00
2023-05-10T01:03:48.831Z,87930.00
2023-05-10T01:04:48.956Z,87927.00
2023-05-10T01:05:48.973Z,87927.00
2023-05-10T01:06:49.016Z,87927.00
2023-05-10T01:07:49.094Z,87928.00
2023-05-10T01:08:49.146Z,87927.00
2023-05-10T01:09:49.227Z,87927.00
2023-05-10T01:10:49.237Z,87923.00
2023-05-10T01:11:49.242Z,87927.00
2023-05-10T01:12:49.348Z,87928.00
2023-05-10T01:13:49.306Z,87927.00
2023-05-10T01:14:49.273Z,87925.00
2023-05-10T01:15:49.307Z,87925.00
2023-05-10T01:16:49.308Z,87928.00
2023-05-10T01:17:49.386Z,87925.00
2023-05-10T01:18:49.400Z,87921.00
2023-05-10T01:19:49.457Z,87925.00
2023-05-10T01:20:49.531Z,87921.00
2023-05-10T01:21:49.616Z,87927.00
2023-05-10T01:22:49.697Z,87927.00
2023-05-10T01:23:49.810Z,87925.00
2023-05-10T01:24:49.853Z,87923.00
2023-05-10T01:25:49.933Z,87921.00
2023-05-10T01:26:50.016Z,87921.00
2023-05-10T01:27:50.097Z,87923.00
2023-05-10T01:28:50.177Z,87921.00
2023-05-10T01:30:01.462Z,87915.00
2023-05-10T01:30:51.260Z,87917.00
2023-05-10T01:31:50.356Z,87915.00
2023-05-10T01:32:50.318Z,87915.00
2023-05-10T01:33:50.302Z,87917.00
2023-05-10T01:34:50.289Z,87913.00
2023-05-10T01:35:50.301Z,87915.00
2023-05-10T01:36:50.332Z,87915.00
2023-05-10T01:37:50.343Z,87915.00
2023-05-10T01:38:50.421Z,87917.00
2023-05-10T01:39:50.473Z,87913.00
2023-05-10T01:40:50.563Z,87913.00
2023-05-10T01:41:50.655Z,87913.00
2023-05-10T01:42:50.718Z,87917.00
2023-05-10T01:43:50.822Z,87915.00
2023-05-10T01:44:50.878Z,87915.00
2023-05-10T01:45:50.961Z,87917.00
2023-05-10T01:46:51.067Z,87915.00
2023-05-10T01:47:51.125Z,87915.00
2023-05-10T01:48:51.176Z,87915.00
2023-05-10T01:49:51.252Z,87915.00
2023-05-10T01:50:51.332Z,87915.00
2023-05-10T01:51:51.427Z,87917.00
2023-05-10T01:52:51.505Z,87915.00
2023-05-10T01:53:51.580Z,87917.00
2023-05-10T01:54:51.656Z,87917.00
2023-05-10T01:55:51.732Z,87915.00
2023-05-10T01:56:51.809Z,87915.00
2023-05-10T01:57:51.900Z,87915.00
2023-05-10T01:58:51.978Z,87919.00
2023-05-10T01:59:52.060Z,87915.00
2023-05-10T02:00:52.148Z,87917.00
2023-05-10T02:01:52.210Z,87917.00
2023-05-10T02:02:52.291Z,87917.00
2023-05-10T02:03:52.392Z,87919.00
2023-05-10T02:04:52.440Z,87923.00
2023-05-10T02:05:52.502Z,87919.00
2023-05-10T02:06:52.600Z,87921.00
2023-05-10T02:07:52.662Z,87923.00
2023-05-10T02:08:52.733Z,87923.00
2023-05-10T02:09:52.814Z,87919.00
2023-05-10T02:10:52.893Z,87925.00
2023-05-10T02:11:52.969Z,87923.00
2023-05-10T02:12:53.093Z,87925.00
2023-05-10T02:13:53.118Z,87928.00
2023-05-10T02:14:53.207Z,87925.00
2023-05-10T02:15:53.272Z,87923.00
2023-05-10T02:16:53.366Z,87927.00
2023-05-10T02:17:53.463Z,87925.00
2023-05-10T02:18:53.485Z,87925.00
2023-05-10T02:19:53.554Z,87927.00
2023-05-10T02:20:53.602Z,87927.00
2023-05-10T02:21:53.668Z,87928.00
2023-05-10T02:22:53.716Z,87928.00
2023-05-10T02:23:53.750Z,87927.00
2023-05-10T02:24:53.819Z,87927.00
2023-05-10T02:25:53.907Z,87930.00
2023-05-10T02:26:53.975Z,87928.00
2023-05-10T02:27:54.016Z,87928.00
2023-05-10T02:28:54.091Z,87928.00
2023-05-10T02:29:54.124Z,87928.00
2023-05-10T02:30:54.167Z,87930.00
2023-05-10T02:31:54.292Z,87930.00
2023-05-10T02:32:54.392Z,87928.00
2023-05-10T02:33:54.284Z,87930.00
2023-05-10T02:34:54.296Z,87930.00
2023-05-10T02:35:54.302Z,87932.00
2023-05-10T02:36:54.302Z,87930.00
2023-05-10T02:37:54.317Z,87932.00
2023-05-10T02:38:54.349Z,87932.00
2023-05-10T02:39:54.333Z,87932.00
2023-05-10T02:40:54.336Z,87932.00
2023-05-10T02:41:54.380Z,87932.00
2023-05-10T02:42:54.440Z,87930.00
2023-05-10T02:43:54.497Z,87932.00
2023-05-10T02:44:54.567Z,87934.00
2023-05-10T02:45:54.744Z,87930.00
2023-05-10T02:46:54.688Z,87932.00
2023-05-10T02:47:54.784Z,87928.00
2023-05-10T02:48:54.836Z,87927.00
2023-05-10T02:49:54.870Z,87925.00
2023-05-10T02:50:54.944Z,87927.00
2023-05-10T02:51:55.017Z,87927.00
2023-05-10T02:52:55.075Z,87928.00
2023-05-10T02:53:55.147Z,87928.00
2023-05-10T02:54:55.193Z,87928.00
2023-05-10T02:55:55.239Z,87928.00
2023-05-10T02:56:55.275Z,87928.00
2023-05-10T02:57:55.294Z,87930.00
2023-05-10T02:58:55.336Z,87932.00
2023-05-10T02:59:55.359Z,87932.00
2023-05-10T03:00:55.390Z,87932.00
2023-05-10T03:01:55.468Z,87932.00
2023-05-10T03:02:55.443Z,87932.00
2023-05-10T03:03:55.405Z,87932.00
2023-05-10T03:04:55.508Z,87932.00
2023-05-10T03:05:55.420Z,87936.00
2023-05-10T03:06:55.431Z,87934.00
2023-05-10T03:07:55.436Z,87932.00
2023-05-10T03:08:55.440Z,87932.00
2023-05-10T03:09:55.448Z,87934.00
2023-05-10T03:10:55.455Z,87936.00
2023-05-10T03:11:55.471Z,87936.00
2023-05-10T03:12:55.494Z,87932.00
2023-05-10T03:13:55.495Z,87934.00
2023-05-10T03:14:55.522Z,87936.00
2023-05-10T03:15:55.534Z,87932.00
2023-05-10T03:16:55.489Z,87936.00
2023-05-10T03:17:55.623Z,87936.00
2023-05-10T03:18:55.525Z,87938.00
2023-05-10T03:19:55.525Z,87934.00
2023-05-10T03:20:55.530Z,87938.00
2023-05-10T03:21:55.535Z,87938.00
2023-05-10T03:22:55.551Z,87938.00
2023-05-10T03:23:55.553Z,87936.00
2023-05-10T03:24:55.550Z,87938.00
2023-05-10T03:25:55.549Z,87938.00
2023-05-10T03:26:55.568Z,87940.00
2023-05-10T03:27:55.565Z,87942.00
2023-05-10T03:28:55.592Z,87940.00
2023-05-10T03:29:55.587Z,87944.00
2023-05-10T03:30:55.598Z,87944.00
2023-05-10T03:33:14.611Z,87948.00
2023-05-10T03:34:14.601Z,87946.00
2023-05-10T03:35:14.594Z,87948.00
2023-05-10T03:36:14.601Z,87950.00
2023-05-10T03:37:14.568Z,87946.00
2023-05-10T03:38:14.579Z,87944.00
2023-05-10T03:39:14.549Z,87952.00
2023-05-10T03:40:14.621Z,87952.00
2023-05-10T03:41:14.533Z,87948.00
2023-05-10T03:42:14.509Z,87952.00
2023-05-10T03:43:14.521Z,87950.00
2023-05-10T03:44:14.487Z,87950.00
2023-05-10T03:45:14.498Z,87952.00
2023-05-10T03:46:14.509Z,87954.00
2023-05-10T03:47:14.455Z,87952.00
2023-05-10T03:48:14.492Z,87954.00
2023-05-10T03:49:14.443Z,87956.00
2023-05-10T03:50:14.484Z,87956.00
2023-05-10T03:51:14.412Z,87960.00
2023-05-10T03:52:14.384Z,87960.00
2023-05-10T03:53:14.367Z,87962.00
2023-05-10T03:54:14.368Z,87964.00
2023-05-10T03:55:14.352Z,87964.00
2023-05-10T03:56:14.345Z,87962.00
2023-05-10T03:57:14.323Z,87968.00
2023-05-10T03:58:14.303Z,87970.00
2023-05-10T03:59:14.299Z,87968.00
2023-05-10T04:00:14.441Z,87968.00
2023-05-10T04:01:14.251Z,87966.00
2023-05-10T04:02:14.277Z,87970.00
2023-05-10T04:03:14.327Z,87966.00
2023-05-10T04:04:14.223Z,87968.00
2023-05-10T04:05:14.213Z,87968.00
2023-05-10T04:06:14.248Z,87968.00
2023-05-10T04:07:14.176Z,87968.00
2023-05-10T04:08:14.159Z,87968.00
2023-05-10T04:09:14.160Z,87972.00
2023-05-10T04:10:14.339Z,87972.00
2023-05-10T04:11:14.108Z,87970.00
2023-05-10T04:12:14.081Z,87970.00
2023-05-10T04:13:14.070Z,87972.00
2023-05-10T04:14:14.058Z,87970.00
2023-05-10T04:15:14.083Z,87972.00
2023-05-10T04:16:14.155Z,87974.00
2023-05-10T04:17:14.228Z,87974.00
2023-05-10T04:18:14.191Z,87974.00
2023-05-10T04:19:14.222Z,87978.00
2023-05-10T04:20:14.358Z,87980.00
2023-05-10T04:21:14.303Z,87978.00
2023-05-10T04:22:14.339Z,87980.00
2023-05-10T04:23:14.366Z,87980.00
2023-05-10T04:24:14.459Z,87978.00
2023-05-10T04:25:14.471Z,87978.00
2023-05-10T04:26:14.473Z,87978.00
2023-05-10T04:27:14.508Z,87976.00
2023-05-10T04:28:14.555Z,87976.00
2023-05-10T04:29:14.609Z,87976.00
2023-05-10T04:30:14.761Z,87974.00
2023-05-10T04:31:14.650Z,87972.00
2023-05-10T04:32:14.552Z,87972.00
2023-05-10T04:33:14.546Z,87970.00
2023-05-10T04:34:14.538Z,87972.00
2023-05-10T04:35:14.509Z,87972.00
2023-05-10T04:36:14.501Z,87976.00
2023-05-10T04:37:14.510Z,87976.00
2023-05-10T04:38:14.493Z,87976.00
2023-05-10T04:39:14.554Z,87976.00
2023-05-10T04:40:14.736Z,87978.00
2023-05-10T04:41:14.627Z,87978.00
2023-05-10T04:42:14.668Z,87978.00
2023-05-10T04:43:14.650Z,87980.00
2023-05-10T04:44:14.631Z,87980.00
2023-05-10T04:45:14.627Z,87980.00
2023-05-10T04:46:14.655Z,87982.00
2023-05-10T04:47:14.611Z,87982.00
2023-05-10T04:48:14.576Z,87980.00
2023-05-10T04:49:14.579Z,87988.00
2023-05-10T04:50:14.717Z,87982.00
2023-05-10T04:51:14.587Z,87980.00
2023-05-10T04:52:14.608Z,87982.00
2023-05-10T04:53:15.993Z,87982.00
2023-05-10T04:54:14.689Z,87982.00
2023-05-10T04:55:14.764Z,87982.00
2023-05-10T04:56:14.798Z,87980.00
2023-05-10T04:57:14.856Z,87988.00
2023-05-10T04:58:14.914Z,87990.00
2023-05-10T04:59:14.955Z,87980.00
2023-05-10T05:00:15.280Z,87990.00
2023-05-10T05:01:15.064Z,87992.00
2023-05-10T05:02:15.077Z,87992.00
2023-05-10T05:03:15.278Z,87994.00
2023-05-10T05:04:15.189Z,87994.00
2023-05-10T05:05:15.217Z,87990.00
2023-05-10T05:06:15.247Z,87990.00
2023-05-10T05:07:15.308Z,87994.00
2023-05-10T05:08:15.335Z,87992.00
2023-05-10T05:09:15.400Z,87992.00
2023-05-10T05:10:15.580Z,87992.00
2023-05-10T05:11:15.468Z,87990.00
2023-05-10T05:12:15.520Z,87992.00
2023-05-10T05:13:15.581Z,87990.00
2023-05-10T05:14:15.616Z,87990.00
2023-05-10T05:15:15.675Z,87990.00
2023-05-10T05:16:15.783Z,87990.00
2023-05-10T05:17:15.765Z,87988.00
2023-05-10T05:18:15.797Z,87988.00
2023-05-10T05:19:15.841Z,87988.00
2023-05-10T05:20:16.010Z,87988.00
2023-05-10T05:21:15.810Z,87982.00
2023-05-10T05:22:16.202Z,87988.00
2023-05-10T05:23:15.797Z,87988.00
2023-05-10T05:24:15.811Z,87988.00
2023-05-10T05:25:15.781Z,87990.00
2023-05-10T05:26:15.776Z,87992.00
2023-05-10T05:27:15.772Z,87988.00
2023-05-10T05:28:15.758Z,87990.00
2023-05-10T05:29:15.785Z,87988.00
2023-05-10T05:30:15.911Z,87990.00
2023-05-10T05:31:15.810Z,87992.00
2023-05-10T05:32:15.771Z,87992.00
2023-05-10T05:33:15.770Z,87994.00
2023-05-10T05:34:15.834Z,87994.00
2023-05-10T05:35:16.255Z,87994.00
2023-05-10T05:36:15.911Z,87996.00
2023-05-10T05:37:15.967Z,87994.00
2023-05-10T05:38:16.006Z,87990.00
2023-05-10T05:39:16.031Z,87994.00
2023-05-10T05:40:16.032Z,87988.00
2023-05-10T05:41:16.047Z,87992.00
2023-05-10T05:42:16.084Z,87988.00
2023-05-10T05:43:16.177Z,87988.00
2023-05-10T05:44:16.204Z,87988.00
2023-05-10T05:45:16.449Z,87992.00
2023-05-10T05:46:16.328Z,87990.00
2023-05-10T05:47:16.367Z,87992.00
2023-05-10T05:48:16.371Z,87990.00
2023-05-10T05:49:16.380Z,87992.00
2023-05-10T05:50:16.380Z,87992.00
2023-05-10T05:51:16.418Z,87990.00
2023-05-10T05:52:16.438Z,87994.00
2023-05-10T05:53:16.393Z,87994.00
2023-05-10T05:54:16.369Z,87992.00
2023-05-10T05:55:16.737Z,87992.00
2023-05-10T05:56:16.428Z,87992.00
2023-05-10T05:57:16.417Z,87992.00
2023-05-10T05:58:16.426Z,87992.00
2023-05-10T05:59:16.445Z,87992.00
2023-05-10T06:00:16.468Z,87990.00
2023-05-10T06:01:16.438Z,87996.00
2023-05-10T06:02:16.480Z,87994.00
2023-05-10T06:03:16.597Z,87992.00
2023-05-10T06:04:16.572Z,87994.00
2023-05-10T06:05:16.726Z,87994.00
2023-05-10T06:06:16.424Z,87996.00
2023-05-10T06:07:16.434Z,87994.00
2023-05-10T06:08:16.419Z,87996.00
2023-05-10T06:09:16.429Z,87996.00
2023-05-10T06:10:16.431Z,87996.00
2023-05-10T06:11:16.415Z,87998.00
2023-05-10T06:12:16.467Z,88000.00
2023-05-10T06:13:16.494Z,88002.00
2023-05-10T06:14:16.434Z,88004.00
2023-05-10T06:15:16.565Z,88002.00
2023-05-10T06:16:16.419Z,88008.00
2023-05-10T06:17:16.385Z,88006.00
2023-05-10T06:18:16.371Z,88006.00
2023-05-10T06:19:16.354Z,88010.00
2023-05-10T06:20:16.378Z,88010.00
2023-05-10T06:21:16.339Z,88010.00
2023-05-10T06:22:16.349Z,88016.00
2023-05-10T06:23:16.365Z,88016.00
2023-05-10T06:24:16.356Z,88014.00
2023-05-10T06:25:16.644Z,88014.00
2023-05-10T06:26:16.322Z,88014.00
2023-05-10T06:27:16.306Z,88018.00
2023-05-10T06:28:16.294Z,88014.00
2023-05-10T06:29:16.299Z,88020.00
2023-05-10T06:30:16.262Z,88020.00
2023-05-10T06:31:16.391Z,88024.00
2023-05-10T06:32:16.239Z,88020.00
2023-05-10T06:33:16.221Z,88024.00
2023-05-10T06:34:16.209Z,88024.00
2023-05-10T06:35:16.651Z,88022.00
2023-05-10T06:36:16.172Z,88024.00
2023-05-10T06:37:16.165Z,88024.00
2023-05-10T06:38:16.159Z,88022.00
2023-05-10T06:39:16.137Z,88024.00
2023-05-10T06:40:16.122Z,88024.00
2023-05-10T06:41:16.106Z,88024.00
2023-05-10T06:42:16.095Z,88026.00
2023-05-10T06:43:16.078Z,88026.00
2023-05-10T06:44:16.046Z,88026.00
2023-05-10T06:45:16.378Z,88030.00
2023-05-10T06:46:16.099Z,88028.00
2023-05-10T06:47:15.992Z,88028.00
2023-05-10T06:48:16.075Z,88026.00
2023-05-10T06:49:16.074Z,88026.00
2023-05-10T06:50:16.101Z,88028.00
2023-05-10T06:51:16.095Z,88032.00
2023-05-10T06:52:16.226Z,88028.00
2023-05-10T06:53:16.134Z,88028.00
2023-05-10T06:54:16.140Z,88028.00
2023-05-10T06:55:16.406Z,88028.00
2023-05-10T06:56:16.232Z,88026.00
2023-05-10T06:57:30.690Z,88026.00
2023-05-10T06:58:17.172Z,88026.00
2023-05-10T06:59:16.262Z,88024.00
2023-05-10T07:00:16.536Z,88028.00
2023-05-10T07:01:16.303Z,88028.00
2023-05-10T07:02:16.248Z,88026.00
2023-05-10T07:03:16.206Z,88026.00
2023-05-10T07:04:16.177Z,88024.00
2023-05-10T07:05:16.372Z,88026.00
2023-05-10T07:06:29.209Z,88026.00
2023-05-10T07:07:17.077Z,88028.00
2023-05-10T07:08:16.075Z,88026.00
2023-05-10T07:09:16.068Z,88026.00
2023-05-10T07:10:16.104Z,88022.00
2023-05-10T07:11:16.068Z,88026.00
2023-05-10T07:12:16.270Z,88028.00
2023-05-10T07:13:16.187Z,88026.00
2023-05-10T07:14:16.063Z,88026.00
2023-05-10T07:15:16.248Z,88024.00
2023-05-10T07:16:16.101Z,88024.00
2023-05-10T07:17:16.097Z,88024.00
2023-05-10T07:18:16.079Z,88026.00
2023-05-10T07:19:16.081Z,88024.00
2023-05-10T07:20:16.071Z,88024.00
2023-05-10T07:21:16.268Z,88026.00
2023-05-10T07:22:16.080Z,88026.00
2023-05-10T07:23:16.074Z,88024.00
2023-05-10T07:24:16.102Z,88022.00
2023-05-10T07:25:16.338Z,88024.00
2023-05-10T07:26:16.171Z,88026.00
2023-05-10T07:27:16.219Z,88024.00
2023-05-10T07:28:16.263Z,88028.00
2023-05-10T07:29:16.331Z,88028.00
2023-05-10T07:30:16.448Z,88028.00
2023-05-10T07:31:16.428Z,88028.00
2023-05-10T07:32:16.549Z,88028.00
2023-05-10T07:33:16.513Z,88024.00
2023-05-10T07:34:16.671Z,88028.00
2023-05-10T07:35:16.835Z,88026.00
2023-05-10T07:36:16.735Z,88026.00
2023-05-10T07:37:16.774Z,88030.00
2023-05-10T07:38:16.775Z,88026.00
2023-05-10T07:39:26.685Z,88030.00
2023-05-10T07:40:17.882Z,88028.00
2023-05-10T07:41:16.762Z,88028.00
2023-05-10T07:42:16.742Z,88026.00
2023-05-10T07:43:16.740Z,88028.00
2023-05-10T07:44:16.747Z,88028.00
2023-05-10T07:45:17.089Z,88028.00
2023-05-10T07:46:16.790Z,88030.00
2023-05-10T07:47:16.723Z,88030.00
2023-05-10T07:48:16.743Z,88028.00
2023-05-10T07:49:16.710Z,88028.00
2023-05-10T07:50:16.731Z,88028.00
2023-05-10T07:51:16.754Z,88030.00
2023-05-10T07:52:16.720Z,88024.00
2023-05-10T07:53:16.876Z,88024.00
2023-05-10T07:54:16.704Z,88024.00
2023-05-10T07:55:16.872Z,88028.00
2023-05-10T07:56:16.704Z,88026.00
2023-05-10T07:57:16.657Z,88026.00
2023-05-10T07:58:16.651Z,88028.00
2023-05-10T07:59:16.654Z,88026.00
2023-05-10T08:00:16.638Z,88024.00
2023-05-10T08:01:16.744Z,88026.00
2023-05-10T08:02:16.716Z,88024.00
2023-05-10T08:03:16.741Z,88024.00
2023-05-10T08:04:16.668Z,88022.00
2023-05-10T08:05:17.060Z,88024.00
2023-05-10T08:06:16.584Z,88020.00
2023-05-10T08:07:16.582Z,88024.00
2023-05-10T08:08:16.581Z,88022.00
2023-05-10T08:09:16.558Z,88022.00
2023-05-10T08:10:16.592Z,88018.00
2023-05-10T08:11:16.511Z,88016.00
2023-05-10T08:12:16.516Z,88018.00
2023-05-10T08:13:16.538Z,88016.00
2023-05-10T08:14:16.493Z,88018.00
2023-05-10T08:15:16.837Z,88018.00
2023-05-10T08:16:16.513Z,88018.00
2023-05-10T08:17:17.340Z,88018.00
2023-05-10T08:18:16.481Z,88016.00
2023-05-10T08:19:16.429Z,88020.00
2023-05-10T08:20:16.496Z,88022.00
2023-05-10T08:21:16.500Z,88018.00
2023-05-10T08:22:16.371Z,88020.00
2023-05-10T08:23:16.442Z,88018.00
2023-05-10T08:24:16.539Z,88018.00
2023-05-10T08:25:16.685Z,88020.00
2023-05-10T08:26:16.484Z,88020.00
2023-05-10T08:27:16.457Z,88018.00
2023-05-10T08:28:16.491Z,88022.00
2023-05-10T08:29:16.531Z,88022.00
2023-05-10T08:30:16.593Z,88020.00
2023-05-10T08:31:16.674Z,88022.00
2023-05-10T08:32:16.616Z,88020.00
2023-05-10T08:33:16.636Z,88022.00
2023-05-10T08:34:16.617Z,88022.00
2023-05-10T08:35:17.059Z,88018.00
2023-05-10T08:36:16.688Z,88024.00
2023-05-10T08:37:16.707Z,88024.00
2023-05-10T08:38:16.691Z,88020.00
2023-05-10T08:39:29.411Z,88022.00
2023-05-10T08:40:17.706Z,88022.00
2023-05-10T08:41:16.656Z,88024.00
2023-05-10T08:42:16.662Z,88022.00
2023-05-10T08:43:16.644Z,88024.00
2023-05-10T08:44:16.652Z,88024.00
2023-05-10T08:45:16.910Z,88026.00
2023-05-10T08:46:16.662Z,88028.00
2023-05-10T08:47:16.678Z,88028.00
2023-05-10T08:48:16.650Z,88026.00
2023-05-10T08:49:16.567Z,88028.00
2023-05-10T08:50:16.585Z,88028.00
2023-05-10T08:51:16.566Z,88030.00
2023-05-10T08:52:16.560Z,88026.00
2023-05-10T08:53:16.590Z,88032.00
2023-05-10T08:54:16.548Z,88030.00
2023-05-10T08:55:17.128Z,88032.00
2023-05-10T08:56:16.544Z,88028.00
2023-05-10T08:57:16.535Z,88026.00
2023-05-10T08:58:16.503Z,88026.00
2023-05-10T08:59:16.510Z,88024.00
2023-05-10T09:00:16.763Z,88028.00
2023-05-10T09:01:16.491Z,88028.00
2023-05-10T09:02:18.693Z,88028.00
2023-05-10T09:03:16.542Z,88030.00
2023-05-10T09:04:16.539Z,88032.00
2023-05-10T09:05:16.694Z,88032.00
2023-05-10T09:06:16.459Z,88034.00
2023-05-10T09:07:16.465Z,88036.00
2023-05-10T09:08:16.478Z,88038.00
2023-05-10T09:09:16.424Z,88038.00
2023-05-10T09:10:16.418Z,88038.00
2023-05-10T09:11:16.381Z,88038.00
2023-05-10T09:12:16.359Z,88042.00
2023-05-10T09:13:16.417Z,88040.00
2023-05-10T09:14:16.337Z,88043.00
2023-05-10T09:15:16.563Z,88043.00
2023-05-10T09:16:22.005Z,88043.00
2023-05-10T09:17:17.441Z,88045.00
2023-05-10T09:18:16.367Z,88045.00
2023-05-10T09:19:16.298Z,88049.00
2023-05-10T09:20:16.270Z,88049.00
2023-05-10T09:21:16.258Z,88051.00
2023-05-10T09:22:16.249Z,88051.00
2023-05-10T09:23:16.262Z,88049.00
2023-05-10T09:24:16.217Z,88057.00
2023-05-10T09:25:16.614Z,88053.00
2023-05-10T09:26:16.231Z,88055.00
2023-05-10T09:27:16.206Z,88057.00
2023-05-10T09:28:17.000Z,88059.00
2023-05-10T09:29:17.499Z,88061.00
2023-05-10T09:30:16.259Z,88059.00
2023-05-10T09:31:16.245Z,88067.00
2023-05-10T09:32:16.151Z,88063.00
2023-05-10T09:33:16.145Z,88069.00
2023-05-10T09:34:16.154Z,88069.00
2023-05-10T09:35:16.350Z,88069.00
2023-05-10T09:36:16.142Z,88071.00
2023-05-10T09:37:16.151Z,88069.00
2023-05-10T09:38:16.164Z,88075.00
2023-05-10T09:39:16.195Z,88077.00
2023-05-10T09:40:16.265Z,88071.00
2023-05-10T09:41:16.302Z,88075.00
2023-05-10T09:42:16.343Z,88073.00
2023-05-10T09:43:16.383Z,88071.00
2023-05-10T09:44:16.425Z,88073.00
2023-05-10T09:45:16.582Z,88075.00
2023-05-10T09:46:16.506Z,88075.00
2023-05-10T09:47:16.467Z,88075.00
2023-05-10T09:48:16.421Z,88077.00
2023-05-10T09:49:16.420Z,88077.00
2023-05-10T09:50:16.449Z,88079.00
2023-05-10T09:51:16.439Z,88083.00
2023-05-10T09:52:16.443Z,88079.00
2023-05-10T09:53:16.450Z,88079.00
2023-05-10T09:54:16.467Z,88085.00
2023-05-10T09:55:16.703Z,88083.00
2023-05-10T09:56:16.471Z,88081.00
2023-05-10T09:57:16.471Z,88083.00
2023-05-10T09:58:16.514Z,88083.00
2023-05-10T09:59:16.669Z,88085.00
2023-05-10T10:00:16.662Z,88085.00
2023-05-10T10:01:16.700Z,88081.00
2023-05-10T10:02:16.626Z,88083.00
2023-05-10T10:03:16.620Z,88083.00
2023-05-10T10:04:16.619Z,88087.00
2023-05-10T10:05:16.755Z,88087.00
2023-05-10T10:06:29.151Z,88085.00
2023-05-10T10:07:17.569Z,88091.00
2023-05-10T10:08:16.591Z,88091.00
2023-05-10T10:09:16.557Z,88089.00
2023-05-10T10:10:16.618Z,88089.00
2023-05-10T10:11:16.591Z,88091.00
2023-05-10T10:12:16.569Z,88091.00
2023-05-10T10:13:16.559Z,88091.00
2023-05-10T10:14:16.541Z,88089.00
2023-05-10T10:15:16.918Z,88095.00
2023-05-10T10:16:16.583Z,88091.00
2023-05-10T10:17:16.536Z,88095.00
2023-05-10T10:18:16.781Z,88093.00
2023-05-10T10:19:16.582Z,88089.00
2023-05-10T10:20:16.819Z,88091.00
2023-05-10T10:21:16.631Z,88091.00
2023-05-10T10:22:16.638Z,88091.00
2023-05-10T10:23:17.599Z,88091.00
2023-05-10T10:24:16.604Z,88089.00
2023-05-10T10:25:16.921Z,88091.00
2023-05-10T10:26:16.594Z,88091.00
2023-05-10T10:27:16.589Z,88093.00
2023-05-10T10:28:16.582Z,88091.00
2023-05-10T10:29:16.553Z,88089.00
2023-05-10T10:30:16.642Z,88089.00
2023-05-10T10:31:16.583Z,88089.00
2023-05-10T10:32:16.557Z,88087.00
2023-05-10T10:33:27.391Z,88087.00
2023-05-10T10:34:17.540Z,88085.00
2023-05-10T10:35:16.727Z,88081.00
2023-05-10T10:36:16.544Z,88085.00
2023-05-10T10:37:16.531Z,88083.00
2023-05-10T10:38:16.503Z,88079.00
2023-05-10T10:39:16.504Z,88077.00
2023-05-10T10:40:16.526Z,88077.00
2023-05-10T10:41:16.521Z,88077.00
2023-05-10T10:42:16.501Z,88079.00
2023-05-10T10:43:16.505Z,88079.00
2023-05-10T10:44:16.478Z,88079.00
2023-05-10T10:45:16.704Z,88079.00
2023-05-10T10:46:16.549Z,88077.00
2023-05-10T10:47:16.490Z,88079.00
2023-05-10T10:48:16.548Z,88077.00
2023-05-10T10:49:16.495Z,88077.00
2023-05-10T10:50:16.553Z,88079.00
2023-05-10T10:51:16.519Z,88077.00
2023-05-10T10:52:16.458Z,88079.00
2023-05-10T10:53:16.502Z,88077.00
2023-05-10T10:54:16.439Z,88075.00
2023-05-10T10:55:16.640Z,88075.00
2023-05-10T10:56:16.543Z,88075.00
2023-05-10T10:57:16.635Z,88077.00
2023-05-10T10:58:16.461Z,88073.00
2023-05-10T10:59:16.474Z,88073.00
2023-05-10T11:00:16.472Z,88073.00
2023-05-10T11:01:16.633Z,88069.00
2023-05-10T11:02:16.588Z,88067.00
2023-05-10T11:03:16.620Z,88065.00
2023-05-10T11:04:16.653Z,88069.00
2023-05-10T11:05:16.845Z,88069.00
2023-05-10T11:06:16.675Z,88067.00
2023-05-10T11:07:16.667Z,88071.00
2023-05-10T11:08:16.724Z,88065.00
2023-05-10T11:09:16.728Z,88065.00
2023-05-10T11:10:16.770Z,88065.00
2023-05-10T11:11:16.916Z,88061.00
2023-05-10T11:12:16.815Z,88061.00
2023-05-10T11:13:16.857Z,88061.00
2023-05-10T11:14:16.866Z,88061.00
2023-05-10T11:15:17.203Z,88057.00
2023-05-10T11:16:16.974Z,88059.00
2023-05-10T11:17:17.056Z,88057.00
2023-05-10T11:18:17.092Z,88057.00
2023-05-10T11:19:17.037Z,88057.00
2023-05-10T11:20:17.359Z,88061.00
2023-05-10T11:21:17.072Z,88063.00
2023-05-10T11:22:17.051Z,88063.00
2023-05-10T11:23:17.096Z,88061.00
2023-05-10T11:24:17.072Z,88061.00
2023-05-10T11:25:17.066Z,88065.00
2023-05-10T11:26:17.226Z,88063.00
2023-05-10T11:27:17.051Z,88063.00
2023-05-10T11:28:17.052Z,88063.00
2023-05-10T11:29:17.174Z,88063.00
2023-05-10T11:30:17.363Z,88063.00
2023-05-10T11:31:17.239Z,88067.00
2023-05-10T11:32:17.224Z,88067.00
2023-05-10T11:33:17.201Z,88067.00
2023-05-10T11:34:17.236Z,88063.00
2023-05-10T11:35:17.262Z,88065.00
2023-05-10T11:36:17.312Z,88063.00
2023-05-10T11:37:17.317Z,88065.00
2023-05-10T11:38:17.343Z,88061.00
2023-05-10T11:39:17.369Z,88061.00
2023-05-10T11:40:17.537Z,88065.00
2023-05-10T11:41:17.466Z,88061.00
2023-05-10T11:42:17.449Z,88061.00
2023-05-10T11:43:17.424Z,88061.00
2023-05-10T11:44:17.407Z,88061.00
2023-05-10T11:45:17.418Z,88063.00
2023-05-10T11:46:17.487Z,88067.00